createdAt,value
2022-12-01T00:00:40.014Z,4.40
2022-12-01T00:05:41.604Z,4.40
2022-12-01T00:10:43.213Z,4.37
2022-12-01T00:15:44.800Z,4.40
2022-12-01T00:20:49.064Z,4.39
2022-12-01T00:25:50.928Z,4.39
2022-12-01T00:30:52.712Z,4.47
2022-12-01T00:36:01.148Z,4.43
2022-12-01T00:41:03.946Z,4.46
2022-12-01T00:46:05.720Z,4.40
2022-12-01T00:51:07.310Z,4.38
2022-12-01T00:56:08.904Z,4.41
2022-12-01T01:01:10.542Z,4.44
2022-12-01T01:06:13.039Z,4.44
2022-12-01T01:11:14.624Z,4.33
2022-12-01T01:16:19.169Z,4.27
2022-12-01T01:21:22.516Z,4.26
2022-12-01T01:26:27.010Z,4.24
2022-12-01T01:31:30.820Z,4.30
2022-12-01T01:36:32.944Z,4.27
2022-12-01T01:41:34.505Z,4.30
2022-12-01T01:46:36.816Z,4.26
2022-12-01T01:51:53.750Z,4.30
2022-12-01T01:56:57.570Z,4.27
2022-12-01T02:02:08.764Z,4.30
2022-12-01T02:07:12.759Z,4.31
2022-12-01T02:12:41.775Z,4.28
2022-12-01T02:18:25.706Z,4.24
2022-12-01T02:24:06.608Z,4.26
2022-12-01T02:29:25.838Z,4.24
2022-12-01T02:34:50.848Z,4.23
2022-12-01T02:40:01.947Z,4.25
2022-12-01T02:45:13.231Z,4.30
2022-12-01T02:50:15.011Z,4.28
2022-12-01T02:55:16.654Z,4.28
2022-12-01T03:00:18.743Z,4.31
2022-12-01T03:05:32.688Z,4.29
2022-12-01T03:10:56.179Z,4.34
2022-12-01T03:16:16.586Z,4.31
2022-12-01T03:21:28.302Z,4.30
2022-12-01T03:26:35.470Z,4.30
2022-12-01T03:31:46.627Z,4.28
2022-12-01T03:36:53.494Z,4.32
2022-12-01T03:42:07.833Z,4.33
2022-12-01T03:47:14.888Z,4.28
2022-12-01T03:52:36.666Z,4.28
2022-12-01T03:57:44.998Z,4.28
2022-12-01T04:02:47.168Z,4.26
2022-12-01T04:07:48.886Z,4.26
2022-12-01T04:12:50.815Z,4.25
2022-12-01T04:17:52.405Z,4.25
2022-12-01T04:22:53.956Z,4.27
2022-12-01T04:27:55.588Z,4.26
2022-12-01T04:32:57.752Z,4.23
2022-12-01T04:37:59.576Z,4.21
2022-12-01T04:43:01.219Z,4.21
2022-12-01T04:48:02.773Z,4.22
2022-12-01T04:53:04.704Z,4.22
2022-12-01T04:58:06.364Z,4.23
2022-12-01T05:03:14.875Z,4.21
2022-12-01T05:08:16.911Z,4.18
2022-12-01T05:13:19.944Z,4.19
2022-12-01T05:18:21.690Z,4.16
2022-12-01T05:23:24.996Z,4.12
2022-12-01T05:28:27.610Z,4.12
2022-12-01T05:33:31.910Z,4.16
2022-12-01T05:38:33.639Z,4.15
2022-12-01T05:43:35.304Z,4.19
2022-12-01T05:48:36.816Z,4.17
2022-12-01T05:53:38.693Z,4.16
2022-12-01T05:58:40.609Z,4.19
2022-12-01T06:03:42.367Z,4.23
2022-12-01T06:08:44.191Z,4.24
2022-12-01T06:13:45.931Z,4.24
2022-12-01T06:18:47.521Z,4.22
2022-12-01T06:23:49.537Z,4.23
2022-12-01T06:28:51.133Z,4.20
2022-12-01T06:34:48.341Z,4.22
2022-12-01T06:39:50.354Z,4.21
2022-12-01T06:44:52.135Z,4.20
2022-12-01T06:49:53.826Z,4.23
2022-12-01T06:54:55.880Z,4.21
2022-12-01T06:59:57.908Z,4.22
2022-12-01T07:04:59.998Z,4.19
2022-12-01T07:10:01.800Z,4.21
2022-12-01T07:15:05.072Z,4.23
2022-12-01T07:20:07.194Z,4.25
2022-12-01T07:25:09.967Z,4.22
2022-12-01T07:30:11.973Z,4.23
2022-12-01T07:35:14.108Z,4.26
2022-12-01T07:40:15.903Z,4.24
2022-12-01T07:45:17.462Z,4.27
2022-12-01T07:50:18.970Z,4.30
2022-12-01T07:55:20.538Z,4.28
2022-12-01T08:00:22.286Z,4.31
2022-12-01T08:05:23.792Z,4.34
2022-12-01T08:10:25.454Z,4.34
2022-12-01T08:15:27.218Z,4.40
2022-12-01T08:20:28.936Z,4.39
2022-12-01T08:25:30.919Z,4.50
2022-12-01T08:30:32.568Z,4.49
2022-12-01T08:35:42.551Z,4.50
2022-12-01T08:40:44.112Z,4.52
2022-12-01T08:46:02.866Z,4.50
2022-12-01T08:51:16.036Z,4.49
2022-12-01T08:56:30.967Z,4.51
2022-12-01T09:01:33.480Z,4.47
2022-12-01T09:06:40.571Z,4.50
2022-12-01T09:11:43.982Z,4.60
2022-12-01T09:16:47.722Z,4.63
2022-12-01T09:21:49.826Z,4.62
2022-12-01T09:26:56.765Z,4.71
2022-12-01T09:32:00.065Z,4.79
2022-12-01T09:37:02.835Z,4.78
2022-12-01T09:42:16.428Z,4.83
2022-12-01T09:47:28.217Z,4.83
2022-12-01T09:52:45.802Z,4.89
2022-12-01T09:57:49.872Z,4.98
2022-12-01T10:03:30.558Z,4.92
2022-12-01T10:08:35.263Z,4.98
2022-12-01T10:13:36.794Z,5.06
2022-12-01T10:18:57.183Z,4.98
2022-12-01T10:24:01.691Z,5.03
2022-12-01T10:29:12.463Z,5.15
2022-12-01T10:34:21.486Z,5.10
2022-12-01T10:39:52.544Z,5.15
2022-12-01T10:44:56.444Z,5.15
2022-12-01T10:49:58.836Z,5.23
2022-12-01T10:55:01.645Z,5.28
2022-12-01T11:00:09.046Z,5.27
2022-12-01T11:05:29.345Z,5.21
2022-12-01T11:10:33.315Z,5.11
2022-12-01T11:15:40.501Z,5.15
2022-12-01T11:20:42.642Z,5.31
2022-12-01T11:26:08.022Z,5.36
2022-12-01T11:31:11.600Z,5.37
2022-12-01T11:36:38.007Z,5.39
2022-12-01T11:41:40.909Z,5.44
2022-12-01T11:46:50.472Z,5.35
2022-12-01T11:52:13.685Z,5.22
2022-12-01T11:57:33.566Z,5.36
2022-12-01T12:03:04.958Z,5.23
2022-12-01T12:08:29.947Z,5.19
2022-12-01T12:14:00.146Z,5.26
2022-12-01T12:19:33.655Z,5.34
2022-12-01T12:24:56.635Z,5.19
2022-12-01T12:30:09.313Z,5.21
2022-12-01T12:35:17.005Z,5.22
2022-12-01T12:40:49.151Z,5.21
2022-12-01T12:46:02.916Z,5.18
2022-12-01T12:51:13.405Z,5.22
2022-12-01T12:56:19.471Z,5.10
2022-12-01T13:01:25.584Z,5.21
2022-12-01T13:06:46.565Z,5.16
2022-12-01T13:12:01.334Z,5.14
2022-12-01T13:17:18.479Z,5.10
2022-12-01T13:22:29.547Z,5.01
2022-12-01T13:27:34.355Z,5.04
2022-12-01T13:32:40.377Z,4.91
2022-12-01T13:37:43.991Z,5.04
2022-12-01T13:43:03.061Z,4.89
2022-12-01T13:48:27.262Z,4.85
2022-12-01T13:53:35.015Z,4.88
2022-12-01T13:58:37.315Z,4.90
2022-12-01T14:03:40.561Z,4.94
2022-12-01T14:08:48.292Z,4.91
2022-12-01T14:13:55.803Z,4.89
2022-12-01T14:18:59.138Z,4.87
2022-12-01T14:24:05.026Z,4.83
2022-12-01T14:29:09.885Z,4.91
2022-12-01T14:34:18.944Z,4.85
2022-12-01T14:39:28.808Z,4.81
2022-12-01T14:44:33.508Z,4.78
2022-12-01T14:49:43.859Z,4.73
2022-12-01T14:54:48.996Z,4.78
2022-12-01T15:00:13.858Z,4.74
2022-12-01T15:05:18.657Z,4.71
2022-12-01T15:10:37.047Z,4.70
2022-12-01T15:15:50.712Z,4.64
2022-12-01T15:21:00.119Z,4.63
2022-12-01T15:26:02.160Z,4.60
2022-12-01T15:31:11.129Z,4.63
2022-12-01T15:36:13.673Z,4.56
2022-12-01T15:41:30.886Z,4.58
2022-12-01T15:46:37.019Z,4.60
2022-12-01T15:51:38.729Z,4.56
2022-12-01T15:57:30.353Z,4.54
2022-12-01T16:02:33.631Z,4.56
2022-12-01T16:08:12.045Z,4.52
2022-12-01T16:13:38.156Z,4.56
2022-12-01T16:18:39.927Z,4.53
2022-12-01T16:23:41.644Z,4.56
2022-12-01T16:28:43.436Z,4.50
2022-12-01T16:33:45.276Z,4.48
2022-12-01T16:38:46.774Z,4.42
2022-12-01T16:44:05.725Z,4.40
2022-12-01T16:49:25.050Z,4.37
2022-12-01T16:54:28.695Z,4.38
2022-12-01T16:59:45.563Z,4.39
2022-12-01T17:04:47.536Z,4.40
2022-12-01T17:09:52.395Z,4.36
2022-12-01T17:14:54.018Z,4.39
2022-12-01T17:19:55.858Z,4.34
2022-12-01T17:24:59.480Z,4.38
2022-12-01T17:30:01.102Z,4.31
2022-12-01T17:35:31.717Z,4.35
2022-12-01T17:40:33.363Z,4.32
2022-12-01T17:46:25.452Z,4.30
2022-12-01T17:51:52.934Z,4.28
2022-12-01T17:56:54.538Z,4.24
2022-12-01T18:01:56.197Z,4.24
2022-12-01T18:06:57.892Z,4.32
2022-12-01T18:12:00.181Z,4.31
2022-12-01T18:17:01.986Z,4.30
2022-12-01T18:22:03.675Z,4.33
2022-12-01T18:27:05.337Z,4.25
2022-12-01T18:32:06.912Z,4.28
2022-12-01T18:37:08.823Z,4.31
2022-12-01T18:42:11.239Z,4.25
2022-12-01T18:47:13.101Z,4.24
2022-12-01T18:52:15.030Z,4.23
2022-12-01T18:57:17.815Z,4.20
2022-12-01T19:02:19.401Z,4.13
2022-12-01T19:07:25.213Z,4.12
2022-12-01T19:12:32.460Z,4.13
2022-12-01T19:17:36.826Z,4.07
2022-12-01T19:22:38.475Z,4.07
2022-12-01T19:27:40.488Z,4.08
2022-12-01T19:32:43.554Z,4.10
2022-12-01T19:37:46.035Z,4.06
2022-12-01T19:42:47.658Z,4.04
2022-12-01T19:47:51.304Z,4.04
2022-12-01T19:52:52.910Z,4.06
2022-12-01T19:57:54.445Z,4.02
2022-12-01T20:02:56.195Z,4.04
2022-12-01T20:07:57.796Z,3.97
2022-12-01T20:12:59.470Z,3.99
2022-12-01T20:18:01.260Z,3.93
2022-12-01T20:23:02.892Z,3.98
2022-12-01T20:28:04.604Z,3.94
2022-12-01T20:33:06.207Z,3.72
2022-12-01T20:38:07.912Z,3.67
2022-12-01T20:43:09.894Z,3.59
2022-12-01T20:48:11.461Z,3.59
2022-12-01T20:53:13.016Z,3.64
2022-12-01T20:58:14.521Z,3.44
2022-12-01T21:03:17.086Z,3.40
2022-12-01T21:08:18.852Z,3.33
2022-12-01T21:13:42.469Z,3.22
2022-12-01T21:18:58.635Z,3.11
2022-12-01T21:24:22.244Z,3.12
2022-12-01T21:29:26.497Z,3.07
2022-12-01T21:34:29.366Z,3.04
2022-12-01T21:39:30.954Z,3.03
2022-12-01T21:44:36.918Z,2.94
2022-12-01T21:49:39.839Z,2.96
2022-12-01T21:54:41.602Z,2.94
2022-12-01T21:59:43.264Z,2.90
2022-12-01T22:04:45.338Z,2.88
2022-12-01T22:09:47.984Z,2.82
2022-12-01T22:14:53.609Z,2.78
2022-12-01T22:20:15.089Z,2.78
2022-12-01T22:25:26.133Z,2.74
2022-12-01T22:30:27.652Z,2.69
2022-12-01T22:35:45.150Z,2.69
2022-12-01T22:41:02.304Z,2.63
2022-12-01T22:46:23.478Z,2.50
2022-12-01T22:51:31.157Z,2.50
2022-12-01T22:56:50.206Z,2.49
2022-12-01T23:01:54.446Z,2.44
2022-12-01T23:06:59.935Z,2.50
2022-12-01T23:12:28.744Z,2.42
2022-12-01T23:18:20.420Z,2.38
2022-12-01T23:23:28.249Z,2.50
2022-12-01T23:28:30.621Z,2.50
2022-12-01T23:33:33.706Z,2.47
2022-12-01T23:38:40.885Z,2.41
2022-12-01T23:43:45.166Z,2.37
2022-12-01T23:48:58.573Z,2.39
2022-12-01T23:54:07.426Z,2.38
2022-12-01T23:59:12.593Z,2.33
